createdAt,value
2023-01-09T08:32:53.689Z,8.42
2023-01-09T08:48:04.793Z,8.80
2023-01-09T08:50:32.135Z,8.90
2023-01-09T08:52:59.633Z,9.14
2023-01-09T08:55:27.190Z,9.29
2023-01-09T08:57:55.842Z,9.45
2023-01-09T09:00:25.285Z,9.72
2023-01-09T09:03:00.063Z,9.70
2023-01-09T09:05:31.799Z,9.73
2023-01-09T09:08:00.200Z,9.91
2023-01-09T09:10:30.622Z,9.90
2023-01-09T09:12:59.980Z,9.98
2023-01-09T09:15:28.730Z,10.06
2023-01-09T09:18:01.762Z,10.20
2023-01-09T09:20:38.051Z,10.35
2023-01-09T09:23:08.237Z,10.70
2023-01-09T09:25:38.284Z,10.87
2023-01-09T09:28:07.185Z,11.05
2023-01-09T09:30:35.455Z,10.99
2023-01-09T09:33:06.337Z,10.81
2023-01-09T09:35:35.304Z,10.65
2023-01-09T09:38:05.735Z,10.58
2023-01-09T09:41:29.613Z,10.90
2023-01-09T09:44:48.406Z,10.68
2023-01-09T09:48:29.418Z,10.71
2023-01-09T09:51:23.751Z,10.86
2023-01-09T09:54:04.669Z,10.85
2023-01-09T09:56:56.614Z,10.98
2023-01-09T09:59:34.472Z,10.77
2023-01-09T10:02:30.780Z,11.10
2023-01-09T10:05:12.382Z,10.66
2023-01-09T10:07:51.128Z,10.51
2023-01-09T10:10:44.337Z,10.62
2023-01-09T10:13:38.067Z,10.95
2023-01-09T10:16:45.648Z,10.57
2023-01-09T10:19:55.376Z,10.70
2023-01-09T10:23:51.246Z,10.78
2023-01-09T10:26:58.114Z,10.77
2023-01-09T10:30:19.901Z,10.70
2023-01-09T10:33:10.515Z,10.78
2023-01-09T10:36:26.613Z,10.43
2023-01-09T10:39:01.648Z,10.30
2023-01-09T10:41:58.977Z,10.37
2023-01-09T10:44:45.490Z,10.11
2023-01-09T10:47:37.524Z,10.10
2023-01-09T10:50:39.934Z,10.20
2023-01-09T10:53:39.692Z,10.17
2023-01-09T10:56:36.960Z,10.08
2023-01-09T10:59:04.451Z,9.73
2023-01-09T11:01:40.167Z,9.80
2023-01-09T11:04:37.624Z,10.14
2023-01-09T11:07:26.211Z,10.08
2023-01-09T11:10:08.212Z,10.51
2023-01-09T11:12:37.986Z,10.36
2023-01-09T11:15:19.548Z,10.58
2023-01-09T11:17:50.371Z,10.32
2023-01-09T11:20:30.072Z,10.39
2023-01-09T11:22:59.209Z,10.08
2023-01-09T11:25:29.082Z,10.63
2023-01-09T11:28:06.774Z,10.44
2023-01-09T11:31:02.261Z,10.28
2023-01-09T11:33:37.989Z,10.42
2023-01-09T11:36:15.663Z,11.09
2023-01-09T11:39:00.921Z,11.08
2023-01-09T11:41:35.790Z,11.26
2023-01-09T11:44:05.325Z,11.62
2023-01-09T11:46:44.006Z,11.92
2023-01-09T11:49:31.599Z,12.17
2023-01-09T11:52:22.175Z,12.34
2023-01-09T11:55:05.527Z,12.00
2023-01-09T11:57:34.579Z,11.72
2023-01-09T12:00:35.619Z,11.46
2023-01-09T12:03:58.587Z,11.34
2023-01-09T12:07:30.427Z,12.71
2023-01-09T12:11:09.306Z,13.10
2023-01-09T12:14:13.178Z,12.57
2023-01-09T12:17:10.565Z,12.72
2023-01-09T12:20:55.802Z,12.91
2023-01-09T12:24:02.403Z,13.38
2023-01-09T12:26:50.517Z,12.74
2023-01-09T12:29:40.719Z,12.30
2023-01-09T12:32:47.839Z,12.78
2023-01-09T12:35:57.658Z,11.65
2023-01-09T12:38:46.183Z,11.61
2023-01-09T12:41:37.244Z,10.97
2023-01-09T12:45:13.754Z,11.06
2023-01-09T12:47:48.788Z,10.79
2023-01-09T12:50:38.182Z,10.66
2023-01-09T12:53:30.826Z,10.46
2023-01-09T12:56:20.121Z,10.25
2023-01-09T12:59:10.177Z,10.61
2023-01-09T13:01:46.618Z,10.74
2023-01-09T13:04:30.835Z,10.40
2023-01-09T13:07:20.482Z,10.70
2023-01-09T13:10:02.331Z,10.98
2023-01-09T13:12:39.195Z,10.89
2023-01-09T13:15:41.355Z,11.04
2023-01-09T13:19:11.115Z,11.11
2023-01-09T13:21:40.225Z,10.94
2023-01-09T13:24:35.563Z,11.06
2023-01-09T13:27:16.439Z,11.02
2023-01-09T13:29:51.959Z,10.74
2023-01-09T13:32:58.404Z,10.99
2023-01-09T13:35:26.081Z,10.84
2023-01-09T13:37:54.395Z,10.92
2023-01-09T13:40:21.813Z,10.69
2023-01-09T13:43:05.393Z,10.66
2023-01-09T13:45:38.132Z,10.66
2023-01-09T13:48:11.959Z,10.64
2023-01-09T13:50:41.306Z,10.67
2023-01-09T13:53:25.048Z,10.35
2023-01-09T13:55:58.895Z,10.41
2023-01-09T13:59:02.552Z,10.87
2023-01-09T14:01:39.773Z,10.74
2023-01-09T14:04:14.870Z,10.85
2023-01-09T14:06:44.954Z,10.35
2023-01-09T14:09:23.495Z,9.93
2023-01-09T14:12:06.128Z,9.62
2023-01-09T14:14:34.949Z,9.56
2023-01-09T14:17:03.475Z,9.55
2023-01-09T14:19:39.888Z,9.34
2023-01-09T14:22:23.339Z,9.36
2023-01-09T14:24:52.958Z,9.27
2023-01-09T14:27:54.305Z,9.00
2023-01-09T14:30:47.076Z,8.28
2023-01-09T14:33:20.549Z,7.44
2023-01-09T14:36:22.098Z,7.27
2023-01-09T14:39:04.048Z,7.60
2023-01-09T14:42:05.651Z,7.54
2023-01-09T14:45:19.384Z,7.39
2023-01-09T14:48:05.553Z,7.79
2023-01-09T14:50:55.404Z,7.73
2023-01-09T14:53:37.058Z,8.24
2023-01-09T14:56:08.396Z,8.32
2023-01-09T14:58:38.721Z,7.88
2023-01-09T15:01:22.976Z,7.90
2023-01-09T15:04:01.773Z,8.24
2023-01-09T15:06:41.702Z,8.66
2023-01-09T15:09:33.615Z,8.48
2023-01-09T15:12:09.431Z,8.30
2023-01-09T15:14:43.268Z,8.60
2023-01-09T15:17:33.953Z,9.04
2023-01-09T15:20:05.439Z,8.60
2023-01-09T15:22:37.840Z,9.03
2023-01-09T15:25:39.358Z,9.30
2023-01-09T15:28:33.117Z,9.17
2023-01-09T15:31:16.719Z,9.20
2023-01-09T15:33:47.997Z,8.84
2023-01-09T15:36:30.305Z,8.97
2023-01-09T15:38:58.308Z,8.74
2023-01-09T15:41:49.204Z,9.05
2023-01-09T15:44:30.228Z,8.75
2023-01-09T15:47:00.230Z,8.71
2023-01-09T15:49:27.915Z,8.88
2023-01-09T15:51:55.956Z,8.95
2023-01-09T15:54:32.505Z,9.15
2023-01-09T15:57:25.945Z,8.82
2023-01-09T15:59:56.334Z,8.76
2023-01-09T16:02:44.272Z,8.65
2023-01-09T16:05:17.846Z,8.81
2023-01-09T16:07:51.799Z,8.85
2023-01-09T16:10:35.479Z,8.70
2023-01-09T16:13:03.555Z,8.90
2023-01-09T16:15:34.930Z,8.83
2023-01-09T16:18:39.060Z,8.89
2023-01-09T16:21:12.491Z,8.53
2023-01-09T16:23:50.464Z,8.79
2023-01-09T16:26:25.415Z,8.80
2023-01-09T16:28:53.811Z,8.67
2023-01-09T16:31:29.800Z,8.68
2023-01-09T16:34:07.207Z,8.66
2023-01-09T16:36:36.372Z,8.42
2023-01-09T16:39:04.644Z,8.44
2023-01-09T16:41:50.580Z,8.75
2023-01-09T16:44:19.323Z,8.48
2023-01-09T16:46:46.903Z,8.60
2023-01-09T16:49:23.361Z,8.80
2023-01-09T16:51:51.760Z,8.49
2023-01-09T16:54:20.237Z,8.58
2023-01-09T16:56:52.902Z,8.71
2023-01-09T16:59:27.777Z,8.57
2023-01-09T17:01:55.592Z,8.47
2023-01-09T17:04:26.106Z,8.36
2023-01-09T17:06:53.441Z,8.44
2023-01-09T17:09:27.646Z,8.61
2023-01-09T17:11:55.141Z,8.34
2023-01-09T17:14:22.452Z,8.57
2023-01-09T17:16:49.978Z,8.25
2023-01-09T17:19:23.563Z,8.27
2023-01-09T17:21:50.879Z,8.61
2023-01-09T17:24:37.154Z,8.37
2023-01-09T17:27:23.138Z,8.51
2023-01-09T17:29:50.510Z,8.22
2023-01-09T17:32:19.552Z,8.24
